sensor_id;sensor_type;location;lat;lon;timestamp;temperature;humidity
6439;DHT22;3252;52.540;13.290;2023-05-16T00:01:56;14.70;99.90
6439;DHT22;3252;52.540;13.290;2023-05-16T00:03:58;14.60;99.90
6439;DHT22;3252;52.540;13.290;2023-05-16T00:06:04;14.60;99.90
6439;DHT22;3252;52.540;13.290;2023-05-16T00:08:06;14.60;99.90
6439;DHT22;3252;52.540;13.290;2023-05-16T00:10:10;14.60;99.90
6439;DHT22;3252;52.540;13.290;2023-05-16T00:12:12;14.50;99.90
6439;DHT22;3252;52.540;13.290;2023-05-16T00:14:15;14.50;99.90
6439;DHT22;3252;52.540;13.290;2023-05-16T00:16:19;14.60;99.90
6439;DHT22;3252;52.540;13.290;2023-05-16T00:18:21;14.50;99.90
6439;DHT22;3252;52.540;13.290;2023-05-16T00:20:26;14.50;99.90
6439;DHT22;3252;52.540;13.290;2023-05-16T00:22:28;14.50;99.90
6439;DHT22;3252;52.540;13.290;2023-05-16T00:24:33;14.50;99.90
6439;DHT22;3252;52.540;13.290;2023-05-16T00:26:37;14.50;99.90
6439;DHT22;3252;52.540;13.290;2023-05-16T00:28:40;14.50;99.90
6439;DHT22;3252;52.540;13.290;2023-05-16T00:30:42;14.50;99.90
6439;DHT22;3252;52.540;13.290;2023-05-16T00:32:45;14.50;99.90
6439;DHT22;3252;52.540;13.290;2023-05-16T00:34:47;14.50;99.90
6439;DHT22;3252;52.540;13.290;2023-05-16T00:36:49;14.50;99.90
6439;DHT22;3252;52.540;13.290;2023-05-16T00:38:51;14.50;99.90
6439;DHT22;3252;52.540;13.290;2023-05-16T00:40:54;14.50;99.90
6439;DHT22;3252;52.540;13.290;2023-05-16T00:42:58;14.50;99.90
6439;DHT22;3252;52.540;13.290;2023-05-16T00:45:01;14.50;99.90
6439;DHT22;3252;52.540;13.290;2023-05-16T00:47:04;14.50;99.90
6439;DHT22;3252;52.540;13.290;2023-05-16T00:49:07;14.50;99.90
6439;DHT22;3252;52.540;13.290;2023-05-16T00:51:09;14.40;99.90
6439;DHT22;3252;52.540;13.290;2023-05-16T00:53:12;14.30;99.90
6439;DHT22;3252;52.540;13.290;2023-05-16T00:55:14;14.30;99.90
6439;DHT22;3252;52.540;13.290;2023-05-16T00:57:17;14.30;99.90
6439;DHT22;3252;52.540;13.290;2023-05-16T00:59:21;14.30;99.90
6439;DHT22;3252;52.540;13.290;2023-05-16T01:01:25;14.30;99.90
6439;DHT22;3252;52.540;13.290;2023-05-16T01:03:28;14.30;99.90
6439;DHT22;3252;52.540;13.290;2023-05-16T01:05:31;14.20;99.90
6439;DHT22;3252;52.540;13.290;2023-05-16T01:07:34;14.20;99.90
6439;DHT22;3252;52.540;13.290;2023-05-16T01:09:37;14.10;99.90
6439;DHT22;3252;52.540;13.290;2023-05-16T01:11:46;14.10;99.90
6439;DHT22;3252;52.540;13.290;2023-05-16T01:13:57;14.10;99.90
6439;DHT22;3252;52.540;13.290;2023-05-16T01:16:09;14.00;99.90
6439;DHT22;3252;52.540;13.290;2023-05-16T01:18:21;14.00;99.90
6439;DHT22;3252;52.540;13.290;2023-05-16T01:20:34;14.00;99.90
6439;DHT22;3252;52.540;13.290;2023-05-16T01:22:46;13.90;99.90
6439;DHT22;3252;52.540;13.290;2023-05-16T01:25:01;13.80;99.90
6439;DHT22;3252;52.540;13.290;2023-05-16T01:27:08;13.80;99.90
6439;DHT22;3252;52.540;13.290;2023-05-16T01:29:11;13.80;99.90
6439;DHT22;3252;52.540;13.290;2023-05-16T01:31:16;13.60;99.90
6439;DHT22;3252;52.540;13.290;2023-05-16T01:33:18;13.60;99.90
6439;DHT22;3252;52.540;13.290;2023-05-16T01:35:20;13.50;99.90
6439;DHT22;3252;52.540;13.290;2023-05-16T01:37:27;13.50;99.90
6439;DHT22;3252;52.540;13.290;2023-05-16T01:39:36;13.40;99.90
6439;DHT22;3252;52.540;13.290;2023-05-16T01:41:46;13.40;99.90
6439;DHT22;3252;52.540;13.290;2023-05-16T01:43:57;13.40;99.90
6439;DHT22;3252;52.540;13.290;2023-05-16T01:46:06;13.40;99.90
6439;DHT22;3252;52.540;13.290;2023-05-16T01:48:17;13.30;99.90
6439;DHT22;3252;52.540;13.290;2023-05-16T01:50:24;13.20;99.90
6439;DHT22;3252;52.540;13.290;2023-05-16T01:52:33;13.10;99.90
6439;DHT22;3252;52.540;13.290;2023-05-16T01:54:37;13.10;99.90
6439;DHT22;3252;52.540;13.290;2023-05-16T01:56:46;13.10;99.90
6439;DHT22;3252;52.540;13.290;2023-05-16T01:58:54;13.10;99.90
6439;DHT22;3252;52.540;13.290;2023-05-16T02:01:00;13.10;99.90
6439;DHT22;3252;52.540;13.290;2023-05-16T02:03:04;13.10;99.90
6439;DHT22;3252;52.540;13.290;2023-05-16T02:05:06;13.00;99.90
6439;DHT22;3252;52.540;13.290;2023-05-16T02:07:10;13.10;99.90
6439;DHT22;3252;52.540;13.290;2023-05-16T02:09:14;13.00;99.90
6439;DHT22;3252;52.540;13.290;2023-05-16T02:11:16;13.10;99.90
6439;DHT22;3252;52.540;13.290;2023-05-16T02:13:18;13.00;99.90
6439;DHT22;3252;52.540;13.290;2023-05-16T02:15:22;12.90;99.90
6439;DHT22;3252;52.540;13.290;2023-05-16T02:17:24;12.90;99.90
6439;DHT22;3252;52.540;13.290;2023-05-16T02:19:26;12.90;99.90
6439;DHT22;3252;52.540;13.290;2023-05-16T02:21:28;12.80;99.90
6439;DHT22;3252;52.540;13.290;2023-05-16T02:23:31;12.80;99.90
6439;DHT22;3252;52.540;13.290;2023-05-16T02:25:34;12.80;99.90
6439;DHT22;3252;52.540;13.290;2023-05-16T02:27:36;12.80;99.90
6439;DHT22;3252;52.540;13.290;2023-05-16T02:29:38;12.80;99.90
6439;DHT22;3252;52.540;13.290;2023-05-16T02:31:44;12.80;99.90
6439;DHT22;3252;52.540;13.290;2023-05-16T02:33:46;12.80;99.90
6439;DHT22;3252;52.540;13.290;2023-05-16T02:35:49;12.80;99.90
6439;DHT22;3252;52.540;13.290;2023-05-16T02:37:51;12.70;99.90
6439;DHT22;3252;52.540;13.290;2023-05-16T02:39:53;12.70;99.90
6439;DHT22;3252;52.540;13.290;2023-05-16T02:41:55;12.70;99.90
6439;DHT22;3252;52.540;13.290;2023-05-16T02:43:57;12.60;99.90
6439;DHT22;3252;52.540;13.290;2023-05-16T02:45:59;12.60;99.90
6439;DHT22;3252;52.540;13.290;2023-05-16T02:48:05;12.60;99.90
6439;DHT22;3252;52.540;13.290;2023-05-16T02:50:09;12.60;99.90
6439;DHT22;3252;52.540;13.290;2023-05-16T02:52:11;12.60;99.90
6439;DHT22;3252;52.540;13.290;2023-05-16T02:54:14;12.60;99.90
6439;DHT22;3252;52.540;13.290;2023-05-16T02:56:16;12.60;99.90
6439;DHT22;3252;52.540;13.290;2023-05-16T02:58:18;12.60;99.90
6439;DHT22;3252;52.540;13.290;2023-05-16T03:00:20;12.60;99.90
6439;DHT22;3252;52.540;13.290;2023-05-16T03:02:23;12.60;99.90
6439;DHT22;3252;52.540;13.290;2023-05-16T03:04:27;12.60;99.90
6439;DHT22;3252;52.540;13.290;2023-05-16T03:06:29;12.60;99.90
6439;DHT22;3252;52.540;13.290;2023-05-16T03:08:33;12.60;99.90
6439;DHT22;3252;52.540;13.290;2023-05-16T03:10:35;12.60;99.90
6439;DHT22;3252;52.540;13.290;2023-05-16T03:12:37;12.50;99.90
6439;DHT22;3252;52.540;13.290;2023-05-16T03:14:40;12.60;99.90
6439;DHT22;3252;52.540;13.290;2023-05-16T03:16:44;12.60;99.90
6439;DHT22;3252;52.540;13.290;2023-05-16T03:18:46;12.50;99.90
6439;DHT22;3252;52.540;13.290;2023-05-16T03:20:50;12.50;99.90
6439;DHT22;3252;52.540;13.290;2023-05-16T03:22:53;12.50;99.90
6439;DHT22;3252;52.540;13.290;2023-05-16T03:24:55;12.50;99.90
6439;DHT22;3252;52.540;13.290;2023-05-16T03:26:58;12.50;99.90
6439;DHT22;3252;52.540;13.290;2023-05-16T03:29:00;12.50;99.90
6439;DHT22;3252;52.540;13.290;2023-05-16T03:31:02;12.50;99.90
6439;DHT22;3252;52.540;13.290;2023-05-16T03:33:04;12.50;99.90
6439;DHT22;3252;52.540;13.290;2023-05-16T03:35:08;12.40;99.90
6439;DHT22;3252;52.540;13.290;2023-05-16T03:37:13;12.40;99.90
6439;DHT22;3252;52.540;13.290;2023-05-16T03:39:16;12.40;99.90
6439;DHT22;3252;52.540;13.290;2023-05-16T03:41:18;12.40;99.90
6439;DHT22;3252;52.540;13.290;2023-05-16T03:43:21;12.30;99.90
6439;DHT22;3252;52.540;13.290;2023-05-16T03:45:23;12.30;99.90
6439;DHT22;3252;52.540;13.290;2023-05-16T03:47:25;12.30;99.90
6439;DHT22;3252;52.540;13.290;2023-05-16T03:49:30;12.30;99.90
6439;DHT22;3252;52.540;13.290;2023-05-16T03:51:32;12.30;99.90
6439;DHT22;3252;52.540;13.290;2023-05-16T03:53:36;12.30;99.90
6439;DHT22;3252;52.540;13.290;2023-05-16T03:55:38;12.30;99.90
6439;DHT22;3252;52.540;13.290;2023-05-16T03:57:41;12.30;99.90
6439;DHT22;3252;52.540;13.290;2023-05-16T03:59:43;12.20;99.90
6439;DHT22;3252;52.540;13.290;2023-05-16T04:01:45;12.10;99.90
6439;DHT22;3252;52.540;13.290;2023-05-16T04:03:48;12.10;99.90
6439;DHT22;3252;52.540;13.290;2023-05-16T04:05:50;12.10;99.90
6439;DHT22;3252;52.540;13.290;2023-05-16T04:07:52;12.10;99.90
6439;DHT22;3252;52.540;13.290;2023-05-16T04:09:56;12.10;99.90
6439;DHT22;3252;52.540;13.290;2023-05-16T04:11:58;12.00;99.90
6439;DHT22;3252;52.540;13.290;2023-05-16T04:14:01;12.10;99.90
6439;DHT22;3252;52.540;13.290;2023-05-16T04:16:04;12.00;99.90
6439;DHT22;3252;52.540;13.290;2023-05-16T04:18:07;12.00;99.90
6439;DHT22;3252;52.540;13.290;2023-05-16T04:20:10;12.10;99.90
6439;DHT22;3252;52.540;13.290;2023-05-16T04:22:13;12.10;99.90
6439;DHT22;3252;52.540;13.290;2023-05-16T04:24:15;12.00;99.90
6439;DHT22;3252;52.540;13.290;2023-05-16T04:26:18;12.00;99.90
6439;DHT22;3252;52.540;13.290;2023-05-16T04:28:21;12.00;99.90
6439;DHT22;3252;52.540;13.290;2023-05-16T04:30:24;12.00;99.90
6439;DHT22;3252;52.540;13.290;2023-05-16T04:32:26;12.00;99.90
6439;DHT22;3252;52.540;13.290;2023-05-16T04:34:28;11.90;99.90
6439;DHT22;3252;52.540;13.290;2023-05-16T04:36:30;11.90;99.90
6439;DHT22;3252;52.540;13.290;2023-05-16T04:38:36;12.00;99.90
6439;DHT22;3252;52.540;13.290;2023-05-16T04:40:38;12.00;99.90
6439;DHT22;3252;52.540;13.290;2023-05-16T04:42:42;11.90;99.90
6439;DHT22;3252;52.540;13.290;2023-05-16T04:44:45;11.80;99.90
6439;DHT22;3252;52.540;13.290;2023-05-16T04:46:47;11.90;99.90
6439;DHT22;3252;52.540;13.290;2023-05-16T04:48:49;11.90;99.90
6439;DHT22;3252;52.540;13.290;2023-05-16T04:50:52;11.90;99.90
6439;DHT22;3252;52.540;13.290;2023-05-16T04:52:54;11.90;99.90
6439;DHT22;3252;52.540;13.290;2023-05-16T04:54:56;11.90;99.90
6439;DHT22;3252;52.540;13.290;2023-05-16T04:57:00;11.90;99.90
6439;DHT22;3252;52.540;13.290;2023-05-16T04:59:03;11.90;99.90
6439;DHT22;3252;52.540;13.290;2023-05-16T05:01:05;11.90;99.90
6439;DHT22;3252;52.540;13.290;2023-05-16T05:03:07;12.00;99.90
6439;DHT22;3252;52.540;13.290;2023-05-16T05:05:10;12.00;99.90
6439;DHT22;3252;52.540;13.290;2023-05-16T05:07:12;12.00;99.90
6439;DHT22;3252;52.540;13.290;2023-05-16T05:09:14;11.90;99.90
6439;DHT22;3252;52.540;13.290;2023-05-16T05:11:17;11.80;99.90
6439;DHT22;3252;52.540;13.290;2023-05-16T05:13:19;11.80;99.90
6439;DHT22;3252;52.540;13.290;2023-05-16T05:15:22;11.80;99.90
6439;DHT22;3252;52.540;13.290;2023-05-16T05:17:24;11.90;99.90
6439;DHT22;3252;52.540;13.290;2023-05-16T05:19:27;11.90;99.90
6439;DHT22;3252;52.540;13.290;2023-05-16T05:21:29;11.90;99.90
6439;DHT22;3252;52.540;13.290;2023-05-16T05:23:32;11.90;99.90
6439;DHT22;3252;52.540;13.290;2023-05-16T05:25:35;11.90;99.90
6439;DHT22;3252;52.540;13.290;2023-05-16T05:27:38;11.90;99.90
6439;DHT22;3252;52.540;13.290;2023-05-16T05:29:40;11.90;99.90
6439;DHT22;3252;52.540;13.290;2023-05-16T05:31:44;11.80;99.90
6439;DHT22;3252;52.540;13.290;2023-05-16T05:33:46;11.90;99.90
6439;DHT22;3252;52.540;13.290;2023-05-16T05:35:48;11.90;99.90
6439;DHT22;3252;52.540;13.290;2023-05-16T05:37:53;11.90;99.90
6439;DHT22;3252;52.540;13.290;2023-05-16T05:39:55;11.90;99.90
6439;DHT22;3252;52.540;13.290;2023-05-16T05:41:58;11.90;99.90
6439;DHT22;3252;52.540;13.290;2023-05-16T05:44:03;11.90;99.90
6439;DHT22;3252;52.540;13.290;2023-05-16T05:46:06;11.90;99.90
6439;DHT22;3252;52.540;13.290;2023-05-16T05:48:10;11.90;99.90
6439;DHT22;3252;52.540;13.290;2023-05-16T05:50:13;11.90;99.90
6439;DHT22;3252;52.540;13.290;2023-05-16T05:52:16;11.90;99.90
6439;DHT22;3252;52.540;13.290;2023-05-16T05:54:18;12.00;99.90
6439;DHT22;3252;52.540;13.290;2023-05-16T05:56:20;12.00;99.90
6439;DHT22;3252;52.540;13.290;2023-05-16T05:58:24;11.90;99.90
6439;DHT22;3252;52.540;13.290;2023-05-16T06:00:26;11.90;99.90
6439;DHT22;3252;52.540;13.290;2023-05-16T06:02:28;11.90;99.90
6439;DHT22;3252;52.540;13.290;2023-05-16T06:04:32;11.90;99.90
6439;DHT22;3252;52.540;13.290;2023-05-16T06:06:34;11.90;99.90
6439;DHT22;3252;52.540;13.290;2023-05-16T06:08:37;12.00;99.90
6439;DHT22;3252;52.540;13.290;2023-05-16T06:10:39;12.00;99.90
6439;DHT22;3252;52.540;13.290;2023-05-16T06:12:41;12.10;99.90
6439;DHT22;3252;52.540;13.290;2023-05-16T06:14:44;12.10;99.90
6439;DHT22;3252;52.540;13.290;2023-05-16T06:16:46;12.10;99.90
6439;DHT22;3252;52.540;13.290;2023-05-16T06:18:48;12.10;99.90
6439;DHT22;3252;52.540;13.290;2023-05-16T06:20:53;12.20;99.90
6439;DHT22;3252;52.540;13.290;2023-05-16T06:22:55;12.20;99.90
6439;DHT22;3252;52.540;13.290;2023-05-16T06:24:58;12.10;99.90
6439;DHT22;3252;52.540;13.290;2023-05-16T06:27:01;12.10;99.90
6439;DHT22;3252;52.540;13.290;2023-05-16T06:29:03;12.20;99.90
6439;DHT22;3252;52.540;13.290;2023-05-16T06:31:05;12.20;99.90
6439;DHT22;3252;52.540;13.290;2023-05-16T06:33:07;12.20;99.90
6439;DHT22;3252;52.540;13.290;2023-05-16T06:35:10;12.10;99.90
6439;DHT22;3252;52.540;13.290;2023-05-16T06:37:13;12.10;99.90
6439;DHT22;3252;52.540;13.290;2023-05-16T06:39:15;12.10;99.90
6439;DHT22;3252;52.540;13.290;2023-05-16T06:41:17;12.10;99.90
6439;DHT22;3252;52.540;13.290;2023-05-16T06:43:19;12.10;99.90
6439;DHT22;3252;52.540;13.290;2023-05-16T06:45:22;12.10;99.90
6439;DHT22;3252;52.540;13.290;2023-05-16T06:47:24;12.10;99.90
6439;DHT22;3252;52.540;13.290;2023-05-16T06:49:26;12.10;99.90
6439;DHT22;3252;52.540;13.290;2023-05-16T06:51:28;12.10;99.90
6439;DHT22;3252;52.540;13.290;2023-05-16T06:53:32;12.10;99.90
6439;DHT22;3252;52.540;13.290;2023-05-16T06:55:34;12.20;99.90
6439;DHT22;3252;52.540;13.290;2023-05-16T06:57:36;12.20;99.90
6439;DHT22;3252;52.540;13.290;2023-05-16T06:59:38;12.30;99.90
6439;DHT22;3252;52.540;13.290;2023-05-16T07:01:42;12.20;99.90
6439;DHT22;3252;52.540;13.290;2023-05-16T07:03:44;12.20;99.90
6439;DHT22;3252;52.540;13.290;2023-05-16T07:05:47;12.30;99.90
6439;DHT22;3252;52.540;13.290;2023-05-16T07:07:52;12.30;99.90
6439;DHT22;3252;52.540;13.290;2023-05-16T07:09:56;12.30;99.90
6439;DHT22;3252;52.540;13.290;2023-05-16T07:11:58;12.30;99.90
6439;DHT22;3252;52.540;13.290;2023-05-16T07:14:00;12.30;99.90
6439;DHT22;3252;52.540;13.290;2023-05-16T07:16:03;12.30;99.90
6439;DHT22;3252;52.540;13.290;2023-05-16T07:18:07;12.30;99.90
6439;DHT22;3252;52.540;13.290;2023-05-16T07:20:10;12.30;99.90
6439;DHT22;3252;52.540;13.290;2023-05-16T07:22:14;12.40;99.90
6439;DHT22;3252;52.540;13.290;2023-05-16T07:24:16;12.50;99.90
6439;DHT22;3252;52.540;13.290;2023-05-16T07:26:19;12.50;99.90
6439;DHT22;3252;52.540;13.290;2023-05-16T07:28:23;12.60;99.90
6439;DHT22;3252;52.540;13.290;2023-05-16T07:30:25;12.70;99.90
6439;DHT22;3252;52.540;13.290;2023-05-16T07:32:27;12.80;99.90
6439;DHT22;3252;52.540;13.290;2023-05-16T07:34:29;12.80;99.90
6439;DHT22;3252;52.540;13.290;2023-05-16T07:36:32;12.90;99.90
6439;DHT22;3252;52.540;13.290;2023-05-16T07:38:35;12.90;99.90
6439;DHT22;3252;52.540;13.290;2023-05-16T07:40:37;12.80;99.90
6439;DHT22;3252;52.540;13.290;2023-05-16T07:42:41;12.80;99.90
6439;DHT22;3252;52.540;13.290;2023-05-16T07:44:43;12.80;99.90
6439;DHT22;3252;52.540;13.290;2023-05-16T07:46:45;12.90;99.90
6439;DHT22;3252;52.540;13.290;2023-05-16T07:48:47;12.90;99.90
6439;DHT22;3252;52.540;13.290;2023-05-16T07:50:49;12.80;99.90
6439;DHT22;3252;52.540;13.290;2023-05-16T07:52:51;12.70;99.90
6439;DHT22;3252;52.540;13.290;2023-05-16T07:54:54;12.60;99.90
6439;DHT22;3252;52.540;13.290;2023-05-16T07:56:56;12.60;99.90
6439;DHT22;3252;52.540;13.290;2023-05-16T07:59:00;12.60;99.90
6439;DHT22;3252;52.540;13.290;2023-05-16T08:01:02;12.60;99.90
6439;DHT22;3252;52.540;13.290;2023-05-16T08:03:05;12.60;99.90
6439;DHT22;3252;52.540;13.290;2023-05-16T08:05:08;12.50;99.90
6439;DHT22;3252;52.540;13.290;2023-05-16T08:07:10;12.60;99.90
6439;DHT22;3252;52.540;13.290;2023-05-16T08:09:13;12.60;99.90
6439;DHT22;3252;52.540;13.290;2023-05-16T08:11:15;12.50;99.90
6439;DHT22;3252;52.540;13.290;2023-05-16T08:13:17;12.50;99.90
6439;DHT22;3252;52.540;13.290;2023-05-16T08:15:20;12.50;99.90
6439;DHT22;3252;52.540;13.290;2023-05-16T08:17:23;12.50;99.90
6439;DHT22;3252;52.540;13.290;2023-05-16T08:19:25;12.50;99.90
6439;DHT22;3252;52.540;13.290;2023-05-16T08:21:27;12.50;99.90
6439;DHT22;3252;52.540;13.290;2023-05-16T08:23:30;12.50;99.90
6439;DHT22;3252;52.540;13.290;2023-05-16T08:25:32;12.50;99.90
6439;DHT22;3252;52.540;13.290;2023-05-16T08:27:34;12.50;99.90
6439;DHT22;3252;52.540;13.290;2023-05-16T08:29:36;12.50;99.90
6439;DHT22;3252;52.540;13.290;2023-05-16T08:31:40;12.50;99.90
6439;DHT22;3252;52.540;13.290;2023-05-16T08:33:42;12.50;99.90
6439;DHT22;3252;52.540;13.290;2023-05-16T08:35:44;12.40;99.90
6439;DHT22;3252;52.540;13.290;2023-05-16T08:37:48;12.50;99.90
6439;DHT22;3252;52.540;13.290;2023-05-16T08:39:50;12.50;99.90
6439;DHT22;3252;52.540;13.290;2023-05-16T08:41:53;12.60;99.90
6439;DHT22;3252;52.540;13.290;2023-05-16T08:43:55;12.60;99.90
6439;DHT22;3252;52.540;13.290;2023-05-16T08:45:58;12.60;99.90
6439;DHT22;3252;52.540;13.290;2023-05-16T08:48:02;12.70;99.90
6439;DHT22;3252;52.540;13.290;2023-05-16T08:50:08;12.70;99.90
6439;DHT22;3252;52.540;13.290;2023-05-16T08:52:11;12.80;99.90
6439;DHT22;3252;52.540;13.290;2023-05-16T08:54:15;12.90;99.90
6439;DHT22;3252;52.540;13.290;2023-05-16T08:56:17;12.90;99.90
6439;DHT22;3252;52.540;13.290;2023-05-16T08:58:22;13.00;99.90
6439;DHT22;3252;52.540;13.290;2023-05-16T09:00:24;13.10;99.90
6439;DHT22;3252;52.540;13.290;2023-05-16T09:02:27;13.10;99.90
6439;DHT22;3252;52.540;13.290;2023-05-16T09:04:31;13.10;99.90
6439;DHT22;3252;52.540;13.290;2023-05-16T09:06:33;13.10;99.90
6439;DHT22;3252;52.540;13.290;2023-05-16T09:08:35;13.20;99.90
6439;DHT22;3252;52.540;13.290;2023-05-16T09:10:37;13.20;99.90
6439;DHT22;3252;52.540;13.290;2023-05-16T09:12:40;13.20;99.90
6439;DHT22;3252;52.540;13.290;2023-05-16T09:14:43;13.20;99.90
6439;DHT22;3252;52.540;13.290;2023-05-16T09:17:02;13.20;99.90
6439;DHT22;3252;52.540;13.290;2023-05-16T09:19:05;13.20;99.90
6439;DHT22;3252;52.540;13.290;2023-05-16T09:21:09;13.20;99.90
6439;DHT22;3252;52.540;13.290;2023-05-16T09:23:11;13.20;99.90
6439;DHT22;3252;52.540;13.290;2023-05-16T09:25:16;13.20;99.90
6439;DHT22;3252;52.540;13.290;2023-05-16T09:27:18;13.20;99.90
6439;DHT22;3252;52.540;13.290;2023-05-16T09:29:21;13.20;99.90
6439;DHT22;3252;52.540;13.290;2023-05-16T09:31:24;13.20;99.90
6439;DHT22;3252;52.540;13.290;2023-05-16T09:33:27;13.20;99.90
6439;DHT22;3252;52.540;13.290;2023-05-16T09:35:30;13.20;99.90
6439;DHT22;3252;52.540;13.290;2023-05-16T09:37:34;13.20;99.90
6439;DHT22;3252;52.540;13.290;2023-05-16T09:39:37;13.20;99.90
6439;DHT22;3252;52.540;13.290;2023-05-16T09:41:39;13.20;99.90
6439;DHT22;3252;52.540;13.290;2023-05-16T09:43:42;13.10;99.90
6439;DHT22;3252;52.540;13.290;2023-05-16T09:45:45;13.20;99.90
6439;DHT22;3252;52.540;13.290;2023-05-16T09:47:48;13.10;99.90
6439;DHT22;3252;52.540;13.290;2023-05-16T09:49:52;13.10;99.90
6439;DHT22;3252;52.540;13.290;2023-05-16T09:51:54;13.10;99.90
6439;DHT22;3252;52.540;13.290;2023-05-16T09:53:58;13.10;99.90
6439;DHT22;3252;52.540;13.290;2023-05-16T09:56:02;13.10;99.90
6439;DHT22;3252;52.540;13.290;2023-05-16T09:58:04;13.10;99.90
6439;DHT22;3252;52.540;13.290;2023-05-16T10:00:09;13.10;99.90
6439;DHT22;3252;52.540;13.290;2023-05-16T10:02:13;13.10;99.90
6439;DHT22;3252;52.540;13.290;2023-05-16T10:04:16;13.10;99.90
6439;DHT22;3252;52.540;13.290;2023-05-16T10:06:18;13.00;99.90
6439;DHT22;3252;52.540;13.290;2023-05-16T10:08:21;13.00;99.90
6439;DHT22;3252;52.540;13.290;2023-05-16T10:10:25;13.00;99.90
6439;DHT22;3252;52.540;13.290;2023-05-16T10:12:29;13.00;99.90
6439;DHT22;3252;52.540;13.290;2023-05-16T10:14:35;13.10;99.90
6439;DHT22;3252;52.540;13.290;2023-05-16T10:16:40;13.10;99.90
6439;DHT22;3252;52.540;13.290;2023-05-16T10:18:44;13.10;99.90
6439;DHT22;3252;52.540;13.290;2023-05-16T10:20:50;13.20;99.90
6439;DHT22;3252;52.540;13.290;2023-05-16T10:22:54;13.30;99.90
6439;DHT22;3252;52.540;13.290;2023-05-16T10:25:02;13.50;99.90
6439;DHT22;3252;52.540;13.290;2023-05-16T10:27:07;13.60;99.90
6439;DHT22;3252;52.540;13.290;2023-05-16T10:29:10;13.60;99.90
6439;DHT22;3252;52.540;13.290;2023-05-16T10:31:13;13.60;99.90
6439;DHT22;3252;52.540;13.290;2023-05-16T10:33:17;13.50;99.90
6439;DHT22;3252;52.540;13.290;2023-05-16T10:35:19;13.40;99.90
6439;DHT22;3252;52.540;13.290;2023-05-16T10:37:22;13.40;99.90
6439;DHT22;3252;52.540;13.290;2023-05-16T10:39:25;13.30;99.90
6439;DHT22;3252;52.540;13.290;2023-05-16T10:41:28;13.20;99.90
6439;DHT22;3252;52.540;13.290;2023-05-16T10:43:32;13.20;99.90
6439;DHT22;3252;52.540;13.290;2023-05-16T10:45:38;13.10;99.90
6439;DHT22;3252;52.540;13.290;2023-05-16T10:47:50;13.00;99.90
6439;DHT22;3252;52.540;13.290;2023-05-16T10:49:52;12.90;99.90
6439;DHT22;3252;52.540;13.290;2023-05-16T10:52:06;12.80;99.90
6439;DHT22;3252;52.540;13.290;2023-05-16T10:54:10;12.80;99.90
6439;DHT22;3252;52.540;13.290;2023-05-16T10:56:14;12.80;99.90
6439;DHT22;3252;52.540;13.290;2023-05-16T10:58:23;13.00;99.90
6439;DHT22;3252;52.540;13.290;2023-05-16T11:00:29;13.20;99.90
6439;DHT22;3252;52.540;13.290;2023-05-16T11:02:39;13.40;99.90
6439;DHT22;3252;52.540;13.290;2023-05-16T11:04:45;13.40;99.90
6439;DHT22;3252;52.540;13.290;2023-05-16T11:06:50;13.60;99.90
6439;DHT22;3252;52.540;13.290;2023-05-16T11:09:02;13.70;99.90
6439;DHT22;3252;52.540;13.290;2023-05-16T11:11:37;13.80;99.90
6439;DHT22;3252;52.540;13.290;2023-05-16T11:13:53;13.90;99.90
6439;DHT22;3252;52.540;13.290;2023-05-16T11:16:29;13.90;99.90
6439;DHT22;3252;52.540;13.290;2023-05-16T11:18:32;13.90;99.40
6439;DHT22;3252;52.540;13.290;2023-05-16T11:20:35;13.90;99.60
6439;DHT22;3252;52.540;13.290;2023-05-16T11:22:38;13.80;99.10
6439;DHT22;3252;52.540;13.290;2023-05-16T11:24:49;13.80;99.30
6439;DHT22;3252;52.540;13.290;2023-05-16T11:26:52;13.80;99.00
6439;DHT22;3252;52.540;13.290;2023-05-16T11:28:55;13.80;99.20
6439;DHT22;3252;52.540;13.290;2023-05-16T11:30:58;13.80;99.10
6439;DHT22;3252;52.540;13.290;2023-05-16T11:33:02;13.80;98.90
6439;DHT22;3252;52.540;13.290;2023-05-16T11:35:06;13.90;98.60
6439;DHT22;3252;52.540;13.290;2023-05-16T11:37:09;14.20;98.70
6439;DHT22;3252;52.540;13.290;2023-05-16T11:39:12;14.50;98.00
6439;DHT22;3252;52.540;13.290;2023-05-16T11:41:14;14.80;97.70
6439;DHT22;3252;52.540;13.290;2023-05-16T11:43:18;14.90;96.30
6439;DHT22;3252;52.540;13.290;2023-05-16T11:45:21;15.10;95.70
6439;DHT22;3252;52.540;13.290;2023-05-16T11:47:25;15.20;95.70
6439;DHT22;3252;52.540;13.290;2023-05-16T11:49:30;15.10;95.10
6439;DHT22;3252;52.540;13.290;2023-05-16T11:51:33;15.00;95.20
6439;DHT22;3252;52.540;13.290;2023-05-16T11:53:36;15.00;95.00
6439;DHT22;3252;52.540;13.290;2023-05-16T11:55:40;14.80;95.40
6439;DHT22;3252;52.540;13.290;2023-05-16T11:57:42;14.80;95.90
6439;DHT22;3252;52.540;13.290;2023-05-16T11:59:45;14.90;96.70
6439;DHT22;3252;52.540;13.290;2023-05-16T12:01:47;14.90;95.90
6439;DHT22;3252;52.540;13.290;2023-05-16T12:03:54;14.90;95.60
6439;DHT22;3252;52.540;13.290;2023-05-16T12:05:59;14.90;95.80
6439;DHT22;3252;52.540;13.290;2023-05-16T12:08:01;14.90;95.80
6439;DHT22;3252;52.540;13.290;2023-05-16T12:10:05;14.70;96.30
6439;DHT22;3252;52.540;13.290;2023-05-16T12:12:09;14.90;96.40
6439;DHT22;3252;52.540;13.290;2023-05-16T12:14:12;14.80;95.80
6439;DHT22;3252;52.540;13.290;2023-05-16T12:16:15;14.90;95.50
6439;DHT22;3252;52.540;13.290;2023-05-16T12:18:17;15.00;95.30
6439;DHT22;3252;52.540;13.290;2023-05-16T12:20:20;15.10;95.10
6439;DHT22;3252;52.540;13.290;2023-05-16T12:22:27;15.20;94.30
6439;DHT22;3252;52.540;13.290;2023-05-16T12:24:29;15.30;93.60
6439;DHT22;3252;52.540;13.290;2023-05-16T12:26:32;15.30;92.90
6439;DHT22;3252;52.540;13.290;2023-05-16T12:28:35;15.40;93.30
6439;DHT22;3252;52.540;13.290;2023-05-16T12:30:40;15.40;92.40
6439;DHT22;3252;52.540;13.290;2023-05-16T12:32:43;15.20;91.90
6439;DHT22;3252;52.540;13.290;2023-05-16T12:34:48;15.60;92.40
6439;DHT22;3252;52.540;13.290;2023-05-16T12:36:52;15.80;91.60
6439;DHT22;3252;52.540;13.290;2023-05-16T12:38:59;16.00;91.10
6439;DHT22;3252;52.540;13.290;2023-05-16T12:41:02;16.10;87.80
6439;DHT22;3252;52.540;13.290;2023-05-16T12:43:12;16.00;83.60
6439;DHT22;3252;52.540;13.290;2023-05-16T12:45:15;16.00;84.90
6439;DHT22;3252;52.540;13.290;2023-05-16T12:47:17;16.00;86.10
6439;DHT22;3252;52.540;13.290;2023-05-16T12:49:21;15.90;86.90
6439;DHT22;3252;52.540;13.290;2023-05-16T12:51:23;15.80;85.80
6439;DHT22;3252;52.540;13.290;2023-05-16T12:53:26;15.90;84.90
6439;DHT22;3252;52.540;13.290;2023-05-16T12:55:30;15.80;84.50
6439;DHT22;3252;52.540;13.290;2023-05-16T12:57:33;15.90;86.60
6439;DHT22;3252;52.540;13.290;2023-05-16T12:59:36;15.90;87.60
6439;DHT22;3252;52.540;13.290;2023-05-16T13:01:39;15.90;87.30
6439;DHT22;3252;52.540;13.290;2023-05-16T13:03:41;15.80;85.50
6439;DHT22;3252;52.540;13.290;2023-05-16T13:05:44;15.90;84.10
6439;DHT22;3252;52.540;13.290;2023-05-16T13:07:46;16.00;83.70
6439;DHT22;3252;52.540;13.290;2023-05-16T13:09:48;16.00;84.40
6439;DHT22;3252;52.540;13.290;2023-05-16T13:11:51;16.00;85.00
6439;DHT22;3252;52.540;13.290;2023-05-16T13:13:54;16.10;84.10